sensor_id;sensor_type;location;lat;lon;timestamp;P1;durP1;ratioP1;P2;durP2;ratioP2
50631;SDS011;49583;45.590;-122.498;2023-03-23T00:02:35;10.60;;;3.70;;
50631;SDS011;49583;45.590;-122.498;2023-03-23T00:04:46;5.20;;;2.70;;
50631;SDS011;49583;45.590;-122.498;2023-03-23T00:06:57;4.00;;;2.70;;
50631;SDS011;49583;45.590;-122.498;2023-03-23T00:09:08;4.10;;;2.60;;
50631;SDS011;49583;45.590;-122.498;2023-03-23T00:11:21;9.80;;;3.20;;
50631;SDS011;49583;45.590;-122.498;2023-03-23T00:13:34;5.50;;;3.10;;
50631;SDS011;49583;45.590;-122.498;2023-03-23T00:15:46;5.80;;;3.70;;
50631;SDS011;49583;45.590;-122.498;2023-03-23T00:17:58;5.50;;;2.70;;
50631;SDS011;49583;45.590;-122.498;2023-03-23T00:20:12;4.90;;;2.80;;
50631;SDS011;49583;45.590;-122.498;2023-03-23T00:22:24;8.60;;;2.70;;
50631;SDS011;49583;45.590;-122.498;2023-03-23T00:24:36;4.50;;;2.70;;
50631;SDS011;49583;45.590;-122.498;2023-03-23T00:26:47;2.50;;;2.10;;
50631;SDS011;49583;45.590;-122.498;2023-03-23T00:28:59;4.00;;;1.90;;
50631;SDS011;49583;45.590;-122.498;2023-03-23T00:31:13;3.70;;;1.80;;
50631;SDS011;49583;45.590;-122.498;2023-03-23T00:33:26;3.00;;;2.20;;
50631;SDS011;49583;45.590;-122.498;2023-03-23T00:35:39;5.10;;;2.20;;
50631;SDS011;49583;45.590;-122.498;2023-03-23T00:37:52;3.30;;;1.80;;
50631;SDS011;49583;45.590;-122.498;2023-03-23T00:40:06;4.80;;;2.60;;
50631;SDS011;49583;45.590;-122.498;2023-03-23T00:42:18;4.80;;;2.30;;
50631;SDS011;49583;45.590;-122.498;2023-03-23T00:44:31;4.20;;;2.90;;
50631;SDS011;49583;45.590;-122.498;2023-03-23T00:46:43;4.50;;;1.70;;
50631;SDS011;49583;45.590;-122.498;2023-03-23T00:48:55;2.70;;;1.80;;
50631;SDS011;49583;45.590;-122.498;2023-03-23T00:51:06;4.60;;;2.00;;
50631;SDS011;49583;45.590;-122.498;2023-03-23T00:53:17;3.20;;;2.10;;
50631;SDS011;49583;45.590;-122.498;2023-03-23T00:55:28;2.20;;;1.60;;
50631;SDS011;49583;45.590;-122.498;2023-03-23T00:57:40;2.80;;;1.70;;
50631;SDS011;49583;45.590;-122.498;2023-03-23T00:59:51;4.00;;;1.80;;
50631;SDS011;49583;45.590;-122.498;2023-03-23T01:02:03;6.30;;;1.40;;
50631;SDS011;49583;45.590;-122.498;2023-03-23T01:04:14;5.90;;;1.30;;
50631;SDS011;49583;45.590;-122.498;2023-03-23T01:06:26;3.60;;;1.60;;
50631;SDS011;49583;45.590;-122.498;2023-03-23T01:08:40;4.50;;;1.20;;
50631;SDS011;49583;45.590;-122.498;2023-03-23T01:11:00;1.00;;;0.80;;
50631;SDS011;49583;45.590;-122.498;2023-03-23T01:13:14;1.80;;;1.20;;
50631;SDS011;49583;45.590;-122.498;2023-03-23T01:15:29;2.80;;;1.10;;
50631;SDS011;49583;45.590;-122.498;2023-03-23T01:17:41;4.70;;;1.20;;
50631;SDS011;49583;45.590;-122.498;2023-03-23T01:19:52;1.10;;;1.00;;
50631;SDS011;49583;45.590;-122.498;2023-03-23T01:22:03;2.60;;;1.20;;
50631;SDS011;49583;45.590;-122.498;2023-03-23T01:24:14;1.40;;;1.00;;
50631;SDS011;49583;45.590;-122.498;2023-03-23T01:26:25;3.40;;;1.40;;
50631;SDS011;49583;45.590;-122.498;2023-03-23T01:30:46;2.60;;;1.20;;
50631;SDS011;49583;45.590;-122.498;2023-03-23T01:32:57;1.80;;;1.10;;
50631;SDS011;49583;45.590;-122.498;2023-03-23T01:35:09;3.50;;;1.10;;
50631;SDS011;49583;45.590;-122.498;2023-03-23T01:39:33;2.50;;;1.00;;
50631;SDS011;49583;45.590;-122.498;2023-03-23T01:41:47;1.40;;;1.10;;
50631;SDS011;49583;45.590;-122.498;2023-03-23T01:44:01;3.40;;;1.50;;
50631;SDS011;49583;45.590;-122.498;2023-03-23T01:46:22;2.80;;;1.30;;
50631;SDS011;49583;45.590;-122.498;2023-03-23T01:48:33;3.20;;;1.20;;
50631;SDS011;49583;45.590;-122.498;2023-03-23T01:50:48;5.00;;;1.40;;
50631;SDS011;49583;45.590;-122.498;2023-03-23T01:53:05;1.90;;;1.00;;
50631;SDS011;49583;45.590;-122.498;2023-03-23T01:55:18;4.50;;;1.40;;
50631;SDS011;49583;45.590;-122.498;2023-03-23T01:57:33;2.20;;;1.10;;
50631;SDS011;49583;45.590;-122.498;2023-03-23T01:59:47;2.70;;;1.20;;
50631;SDS011;49583;45.590;-122.498;2023-03-23T02:02:05;2.30;;;1.20;;
50631;SDS011;49583;45.590;-122.498;2023-03-23T02:04:17;2.60;;;1.50;;
50631;SDS011;49583;45.590;-122.498;2023-03-23T02:06:29;2.30;;;1.10;;
50631;SDS011;49583;45.590;-122.498;2023-03-23T02:08:54;2.30;;;1.40;;
50631;SDS011;49583;45.590;-122.498;2023-03-23T02:11:11;1.70;;;1.30;;
50631;SDS011;49583;45.590;-122.498;2023-03-23T02:13:23;2.70;;;1.60;;
50631;SDS011;49583;45.590;-122.498;2023-03-23T02:15:36;5.40;;;1.20;;
50631;SDS011;49583;45.590;-122.498;2023-03-23T02:17:55;2.20;;;1.00;;
50631;SDS011;49583;45.590;-122.498;2023-03-23T02:20:21;2.50;;;1.30;;
50631;SDS011;49583;45.590;-122.498;2023-03-23T02:23:07;3.50;;;1.20;;
50631;SDS011;49583;45.590;-122.498;2023-03-23T02:25:31;2.80;;;1.50;;
50631;SDS011;49583;45.590;-122.498;2023-03-23T02:28:08;3.00;;;1.40;;
50631;SDS011;49583;45.590;-122.498;2023-03-23T02:30:50;2.70;;;1.20;;
50631;SDS011;49583;45.590;-122.498;2023-03-23T02:36:00;1.90;;;1.40;;
50631;SDS011;49583;45.590;-122.498;2023-03-23T02:38:16;2.90;;;1.60;;
50631;SDS011;49583;45.590;-122.498;2023-03-23T02:40:32;4.80;;;1.50;;
50631;SDS011;49583;45.590;-122.498;2023-03-23T02:42:47;2.30;;;1.40;;
50631;SDS011;49583;45.590;-122.498;2023-03-23T02:45:04;2.00;;;1.20;;
50631;SDS011;49583;45.590;-122.498;2023-03-23T02:47:18;1.30;;;1.20;;
50631;SDS011;49583;45.590;-122.498;2023-03-23T02:49:34;1.80;;;1.20;;
50631;SDS011;49583;45.590;-122.498;2023-03-23T02:51:46;2.80;;;1.10;;
50631;SDS011;49583;45.590;-122.498;2023-03-23T02:54:00;4.00;;;0.90;;
50631;SDS011;49583;45.590;-122.498;2023-03-23T02:56:13;3.50;;;1.20;;
50631;SDS011;49583;45.590;-122.498;2023-03-23T02:58:26;1.10;;;1.00;;
50631;SDS011;49583;45.590;-122.498;2023-03-23T03:00:38;2.50;;;1.10;;
50631;SDS011;49583;45.590;-122.498;2023-03-23T03:02:50;2.90;;;1.40;;
50631;SDS011;49583;45.590;-122.498;2023-03-23T03:05:03;3.10;;;1.00;;
50631;SDS011;49583;45.590;-122.498;2023-03-23T03:09:58;3.20;;;1.20;;
50631;SDS011;49583;45.590;-122.498;2023-03-23T03:12:13;3.10;;;1.20;;
50631;SDS011;49583;45.590;-122.498;2023-03-23T03:14:29;2.00;;;1.20;;
50631;SDS011;49583;45.590;-122.498;2023-03-23T03:16:47;1.70;;;1.20;;
50631;SDS011;49583;45.590;-122.498;2023-03-23T03:19:03;1.90;;;1.50;;
50631;SDS011;49583;45.590;-122.498;2023-03-23T03:21:18;2.30;;;1.30;;
50631;SDS011;49583;45.590;-122.498;2023-03-23T03:23:35;4.10;;;1.80;;
50631;SDS011;49583;45.590;-122.498;2023-03-23T03:25:50;4.80;;;1.80;;
50631;SDS011;49583;45.590;-122.498;2023-03-23T03:28:17;3.30;;;1.60;;
50631;SDS011;49583;45.590;-122.498;2023-03-23T03:30:30;6.80;;;1.80;;
50631;SDS011;49583;45.590;-122.498;2023-03-23T03:32:46;3.90;;;2.00;;
50631;SDS011;49583;45.590;-122.498;2023-03-23T03:35:02;2.90;;;1.90;;
50631;SDS011;49583;45.590;-122.498;2023-03-23T03:37:13;3.00;;;1.90;;
50631;SDS011;49583;45.590;-122.498;2023-03-23T03:39:27;5.50;;;1.70;;
50631;SDS011;49583;45.590;-122.498;2023-03-23T03:41:39;3.50;;;2.00;;
50631;SDS011;49583;45.590;-122.498;2023-03-23T03:43:50;3.50;;;2.50;;
50631;SDS011;49583;45.590;-122.498;2023-03-23T03:46:01;10.10;;;2.70;;
50631;SDS011;49583;45.590;-122.498;2023-03-23T03:48:13;3.90;;;2.50;;
50631;SDS011;49583;45.590;-122.498;2023-03-23T03:50:25;5.90;;;2.40;;
50631;SDS011;49583;45.590;-122.498;2023-03-23T03:54:46;2.70;;;1.60;;
50631;SDS011;49583;45.590;-122.498;2023-03-23T03:56:56;5.70;;;2.20;;
50631;SDS011;49583;45.590;-122.498;2023-03-23T03:59:16;3.50;;;2.00;;
50631;SDS011;49583;45.590;-122.498;2023-03-23T04:01:50;4.80;;;1.80;;
50631;SDS011;49583;45.590;-122.498;2023-03-23T04:04:01;5.90;;;2.20;;
50631;SDS011;49583;45.590;-122.498;2023-03-23T04:06:14;7.40;;;2.70;;
50631;SDS011;49583;45.590;-122.498;2023-03-23T04:08:26;4.90;;;2.10;;
50631;SDS011;49583;45.590;-122.498;2023-03-23T04:10:37;4.70;;;2.40;;
50631;SDS011;49583;45.590;-122.498;2023-03-23T04:12:48;6.00;;;2.00;;
50631;SDS011;49583;45.590;-122.498;2023-03-23T04:15:22;4.60;;;2.00;;
50631;SDS011;49583;45.590;-122.498;2023-03-23T04:17:34;7.70;;;2.10;;
50631;SDS011;49583;45.590;-122.498;2023-03-23T04:19:47;5.60;;;2.80;;
50631;SDS011;49583;45.590;-122.498;2023-03-23T04:21:58;4.60;;;2.00;;
50631;SDS011;49583;45.590;-122.498;2023-03-23T04:26:18;9.60;;;2.10;;
50631;SDS011;49583;45.590;-122.498;2023-03-23T04:28:30;4.80;;;2.30;;
50631;SDS011;49583;45.590;-122.498;2023-03-23T04:31:04;6.20;;;2.50;;
50631;SDS011;49583;45.590;-122.498;2023-03-23T04:33:22;5.10;;;2.20;;
50631;SDS011;49583;45.590;-122.498;2023-03-23T04:35:34;5.20;;;2.60;;
50631;SDS011;49583;45.590;-122.498;2023-03-23T04:37:54;4.70;;;2.50;;
50631;SDS011;49583;45.590;-122.498;2023-03-23T04:40:05;5.60;;;2.30;;
50631;SDS011;49583;45.590;-122.498;2023-03-23T04:42:24;6.00;;;2.30;;
50631;SDS011;49583;45.590;-122.498;2023-03-23T04:44:56;3.30;;;1.80;;
50631;SDS011;49583;45.590;-122.498;2023-03-23T04:47:13;5.50;;;2.20;;
50631;SDS011;49583;45.590;-122.498;2023-03-23T04:49:31;2.90;;;2.00;;
50631;SDS011;49583;45.590;-122.498;2023-03-23T04:51:52;6.20;;;2.60;;
50631;SDS011;49583;45.590;-122.498;2023-03-23T04:54:18;6.60;;;2.20;;
50631;SDS011;49583;45.590;-122.498;2023-03-23T04:56:33;4.10;;;2.20;;
50631;SDS011;49583;45.590;-122.498;2023-03-23T04:58:48;7.50;;;3.50;;
50631;SDS011;49583;45.590;-122.498;2023-03-23T05:03:41;5.20;;;2.40;;
50631;SDS011;49583;45.590;-122.498;2023-03-23T05:05:52;6.50;;;2.30;;
50631;SDS011;49583;45.590;-122.498;2023-03-23T05:08:04;6.70;;;3.10;;
50631;SDS011;49583;45.590;-122.498;2023-03-23T05:10:17;5.00;;;2.60;;
50631;SDS011;49583;45.590;-122.498;2023-03-23T05:12:29;4.70;;;2.50;;
50631;SDS011;49583;45.590;-122.498;2023-03-23T05:14:43;6.20;;;2.70;;
50631;SDS011;49583;45.590;-122.498;2023-03-23T05:16:55;8.70;;;2.80;;
50631;SDS011;49583;45.590;-122.498;2023-03-23T05:19:06;6.40;;;2.80;;
50631;SDS011;49583;45.590;-122.498;2023-03-23T05:21:17;5.60;;;2.80;;
50631;SDS011;49583;45.590;-122.498;2023-03-23T05:23:31;4.40;;;2.70;;
50631;SDS011;49583;45.590;-122.498;2023-03-23T05:25:54;9.40;;;3.40;;
50631;SDS011;49583;45.590;-122.498;2023-03-23T05:28:09;5.70;;;2.90;;
50631;SDS011;49583;45.590;-122.498;2023-03-23T05:30:20;9.50;;;3.70;;
50631;SDS011;49583;45.590;-122.498;2023-03-23T05:32:32;6.00;;;3.00;;
50631;SDS011;49583;45.590;-122.498;2023-03-23T05:34:58;9.50;;;3.10;;
50631;SDS011;49583;45.590;-122.498;2023-03-23T05:37:11;10.50;;;3.30;;
50631;SDS011;49583;45.590;-122.498;2023-03-23T05:39:28;7.50;;;3.50;;
50631;SDS011;49583;45.590;-122.498;2023-03-23T05:41:47;7.70;;;3.20;;
50631;SDS011;49583;45.590;-122.498;2023-03-23T05:43:59;6.20;;;3.00;;
50631;SDS011;49583;45.590;-122.498;2023-03-23T05:48:30;5.80;;;2.60;;
50631;SDS011;49583;45.590;-122.498;2023-03-23T05:50:44;6.80;;;2.70;;
50631;SDS011;49583;45.590;-122.498;2023-03-23T05:52:55;4.50;;;2.30;;
50631;SDS011;49583;45.590;-122.498;2023-03-23T05:55:07;7.40;;;3.20;;
50631;SDS011;49583;45.590;-122.498;2023-03-23T05:57:20;8.90;;;3.10;;
50631;SDS011;49583;45.590;-122.498;2023-03-23T05:59:40;7.40;;;2.90;;
50631;SDS011;49583;45.590;-122.498;2023-03-23T06:01:57;6.60;;;3.10;;
50631;SDS011;49583;45.590;-122.498;2023-03-23T06:04:09;10.50;;;3.30;;
50631;SDS011;49583;45.590;-122.498;2023-03-23T06:06:43;8.50;;;3.30;;
50631;SDS011;49583;45.590;-122.498;2023-03-23T06:08:55;4.90;;;3.30;;
50631;SDS011;49583;45.590;-122.498;2023-03-23T06:11:33;7.00;;;3.50;;
50631;SDS011;49583;45.590;-122.498;2023-03-23T06:14:03;9.70;;;3.80;;
50631;SDS011;49583;45.590;-122.498;2023-03-23T06:16:15;7.90;;;4.20;;
50631;SDS011;49583;45.590;-122.498;2023-03-23T06:18:31;10.70;;;3.60;;
50631;SDS011;49583;45.590;-122.498;2023-03-23T06:20:57;9.60;;;4.10;;
50631;SDS011;49583;45.590;-122.498;2023-03-23T06:23:21;13.30;;;3.80;;
50631;SDS011;49583;45.590;-122.498;2023-03-23T06:25:33;11.30;;;4.10;;
50631;SDS011;49583;45.590;-122.498;2023-03-23T06:27:44;6.80;;;3.70;;
50631;SDS011;49583;45.590;-122.498;2023-03-23T06:29:56;7.40;;;3.70;;
50631;SDS011;49583;45.590;-122.498;2023-03-23T06:32:09;7.30;;;2.90;;
50631;SDS011;49583;45.590;-122.498;2023-03-23T06:34:22;8.70;;;3.10;;
50631;SDS011;49583;45.590;-122.498;2023-03-23T06:37:11;5.70;;;3.00;;
50631;SDS011;49583;45.590;-122.498;2023-03-23T06:39:36;5.50;;;3.00;;
50631;SDS011;49583;45.590;-122.498;2023-03-23T06:42:22;9.20;;;3.10;;
50631;SDS011;49583;45.590;-122.498;2023-03-23T06:44:59;7.60;;;3.80;;
50631;SDS011;49583;45.590;-122.498;2023-03-23T06:47:11;6.60;;;3.30;;
50631;SDS011;49583;45.590;-122.498;2023-03-23T06:49:27;6.30;;;2.90;;
50631;SDS011;49583;45.590;-122.498;2023-03-23T06:51:53;8.50;;;3.60;;
50631;SDS011;49583;45.590;-122.498;2023-03-23T06:54:07;7.80;;;3.40;;
50631;SDS011;49583;45.590;-122.498;2023-03-23T06:56:19;7.50;;;2.90;;
50631;SDS011;49583;45.590;-122.498;2023-03-23T06:58:31;6.90;;;3.00;;
50631;SDS011;49583;45.590;-122.498;2023-03-23T07:00:42;8.30;;;3.40;;
50631;SDS011;49583;45.590;-122.498;2023-03-23T07:02:54;7.20;;;3.20;;
50631;SDS011;49583;45.590;-122.498;2023-03-23T07:05:06;6.60;;;3.40;;
50631;SDS011;49583;45.590;-122.498;2023-03-23T07:07:18;6.50;;;3.40;;
50631;SDS011;49583;45.590;-122.498;2023-03-23T07:09:55;9.30;;;3.60;;
50631;SDS011;49583;45.590;-122.498;2023-03-23T07:12:09;9.20;;;3.80;;
50631;SDS011;49583;45.590;-122.498;2023-03-23T07:14:24;3.80;;;2.40;;
50631;SDS011;49583;45.590;-122.498;2023-03-23T07:16:35;3.90;;;3.00;;
50631;SDS011;49583;45.590;-122.498;2023-03-23T07:18:47;5.10;;;3.30;;
50631;SDS011;49583;45.590;-122.498;2023-03-23T07:20:59;5.90;;;3.50;;
50631;SDS011;49583;45.590;-122.498;2023-03-23T07:23:10;8.90;;;3.40;;
50631;SDS011;49583;45.590;-122.498;2023-03-23T07:25:24;6.20;;;3.70;;
50631;SDS011;49583;45.590;-122.498;2023-03-23T07:27:35;5.90;;;3.20;;
50631;SDS011;49583;45.590;-122.498;2023-03-23T07:29:47;8.30;;;3.80;;
50631;SDS011;49583;45.590;-122.498;2023-03-23T07:32:01;6.30;;;3.30;;
50631;SDS011;49583;45.590;-122.498;2023-03-23T07:34:13;7.50;;;3.80;;
50631;SDS011;49583;45.590;-122.498;2023-03-23T07:36:46;6.00;;;3.00;;
50631;SDS011;49583;45.590;-122.498;2023-03-23T07:38:58;6.90;;;3.20;;
50631;SDS011;49583;45.590;-122.498;2023-03-23T07:41:11;7.30;;;3.00;;
50631;SDS011;49583;45.590;-122.498;2023-03-23T07:43:22;5.70;;;2.90;;
50631;SDS011;49583;45.590;-122.498;2023-03-23T07:45:53;6.90;;;3.60;;
50631;SDS011;49583;45.590;-122.498;2023-03-23T07:48:10;4.70;;;3.00;;
50631;SDS011;49583;45.590;-122.498;2023-03-23T07:50:21;6.30;;;3.10;;
50631;SDS011;49583;45.590;-122.498;2023-03-23T07:52:36;6.20;;;3.10;;
50631;SDS011;49583;45.590;-122.498;2023-03-23T07:54:48;6.30;;;2.80;;
50631;SDS011;49583;45.590;-122.498;2023-03-23T07:57:14;6.20;;;2.50;;
50631;SDS011;49583;45.590;-122.498;2023-03-23T07:59:29;5.30;;;3.10;;
50631;SDS011;49583;45.590;-122.498;2023-03-23T08:01:39;4.40;;;3.20;;
50631;SDS011;49583;45.590;-122.498;2023-03-23T08:04:08;6.60;;;2.90;;
50631;SDS011;49583;45.590;-122.498;2023-03-23T08:06:47;8.90;;;3.20;;
50631;SDS011;49583;45.590;-122.498;2023-03-23T08:09:24;6.40;;;2.80;;
50631;SDS011;49583;45.590;-122.498;2023-03-23T08:11:57;7.40;;;2.80;;
50631;SDS011;49583;45.590;-122.498;2023-03-23T08:14:28;4.70;;;2.60;;
50631;SDS011;49583;45.590;-122.498;2023-03-23T08:16:59;8.00;;;2.80;;
50631;SDS011;49583;45.590;-122.498;2023-03-23T08:19:25;5.80;;;2.90;;
50631;SDS011;49583;45.590;-122.498;2023-03-23T08:21:57;4.60;;;2.10;;
50631;SDS011;49583;45.590;-122.498;2023-03-23T08:24:32;9.20;;;2.30;;
50631;SDS011;49583;45.590;-122.498;2023-03-23T08:27:07;3.10;;;1.60;;
50631;SDS011;49583;45.590;-122.498;2023-03-23T08:29:45;5.30;;;2.20;;
50631;SDS011;49583;45.590;-122.498;2023-03-23T08:32:20;4.30;;;1.90;;
50631;SDS011;49583;45.590;-122.498;2023-03-23T08:35:10;2.90;;;1.90;;
50631;SDS011;49583;45.590;-122.498;2023-03-23T08:37:34;4.80;;;2.10;;
50631;SDS011;49583;45.590;-122.498;2023-03-23T08:39:53;7.00;;;1.90;;
50631;SDS011;49583;45.590;-122.498;2023-03-23T08:42:24;3.40;;;2.00;;
50631;SDS011;49583;45.590;-122.498;2023-03-23T08:44:51;3.00;;;1.90;;
50631;SDS011;49583;45.590;-122.498;2023-03-23T08:47:21;2.10;;;1.90;;
50631;SDS011;49583;45.590;-122.498;2023-03-23T08:49:53;4.00;;;1.90;;
50631;SDS011;49583;45.590;-122.498;2023-03-23T08:52:24;2.80;;;1.90;;
50631;SDS011;49583;45.590;-122.498;2023-03-23T08:54:57;3.40;;;1.70;;
50631;SDS011;49583;45.590;-122.498;2023-03-23T08:57:25;4.30;;;1.50;;
50631;SDS011;49583;45.590;-122.498;2023-03-23T09:00:08;2.60;;;1.50;;
50631;SDS011;49583;45.590;-122.498;2023-03-23T09:02:42;2.50;;;1.10;;
50631;SDS011;49583;45.590;-122.498;2023-03-23T09:04:59;2.70;;;1.40;;
50631;SDS011;49583;45.590;-122.498;2023-03-23T09:07:11;3.60;;;0.90;;
50631;SDS011;49583;45.590;-122.498;2023-03-23T09:09:22;1.60;;;1.40;;
50631;SDS011;49583;45.590;-122.498;2023-03-23T09:11:33;3.90;;;1.00;;
50631;SDS011;49583;45.590;-122.498;2023-03-23T09:15:53;1.60;;;0.80;;
50631;SDS011;49583;45.590;-122.498;2023-03-23T09:18:04;1.40;;;1.00;;
50631;SDS011;49583;45.590;-122.498;2023-03-23T09:20:15;2.60;;;1.20;;
50631;SDS011;49583;45.590;-122.498;2023-03-23T09:24:39;3.10;;;1.00;;
50631;SDS011;49583;45.590;-122.498;2023-03-23T09:26:50;2.60;;;1.00;;
50631;SDS011;49583;45.590;-122.498;2023-03-23T09:29:01;2.70;;;0.80;;
50631;SDS011;49583;45.590;-122.498;2023-03-23T09:31:12;2.50;;;0.90;;
50631;SDS011;49583;45.590;-122.498;2023-03-23T09:33:26;0.90;;;0.60;;
50631;SDS011;49583;45.590;-122.498;2023-03-23T09:35:40;2.20;;;0.90;;
50631;SDS011;49583;45.590;-122.498;2023-03-23T09:37:52;4.50;;;0.90;;
50631;SDS011;49583;45.590;-122.498;2023-03-23T09:40:06;1.60;;;0.80;;
50631;SDS011;49583;45.590;-122.498;2023-03-23T09:42:28;2.90;;;0.80;;
50631;SDS011;49583;45.590;-122.498;2023-03-23T09:44:50;3.00;;;0.80;;
50631;SDS011;49583;45.590;-122.498;2023-03-23T09:47:11;3.20;;;1.00;;
50631;SDS011;49583;45.590;-122.498;2023-03-23T09:49:27;2.70;;;0.90;;
50631;SDS011;49583;45.590;-122.498;2023-03-23T09:51:42;2.60;;;0.90;;
50631;SDS011;49583;45.590;-122.498;2023-03-23T09:53:58;2.10;;;0.90;;
50631;SDS011;49583;45.590;-122.498;2023-03-23T09:56:14;2.70;;;0.80;;
50631;SDS011;49583;45.590;-122.498;2023-03-23T09:58:26;2.20;;;1.30;;
50631;SDS011;49583;45.590;-122.498;2023-03-23T10:00:40;1.30;;;0.90;;
50631;SDS011;49583;45.590;-122.498;2023-03-23T10:02:55;1.10;;;0.80;;
50631;SDS011;49583;45.590;-122.498;2023-03-23T10:05:18;1.20;;;0.90;;
50631;SDS011;49583;45.590;-122.498;2023-03-23T10:07:37;2.20;;;0.90;;
50631;SDS011;49583;45.590;-122.498;2023-03-23T10:09:48;1.20;;;1.10;;
50631;SDS011;49583;45.590;-122.498;2023-03-23T10:12:04;1.30;;;0.90;;
50631;SDS011;49583;45.590;-122.498;2023-03-23T10:14:31;1.20;;;0.90;;
50631;SDS011;49583;45.590;-122.498;2023-03-23T10:16:58;3.60;;;0.90;;
50631;SDS011;49583;45.590;-122.498;2023-03-23T10:19:20;1.40;;;1.00;;
50631;SDS011;49583;45.590;-122.498;2023-03-23T10:21:39;2.80;;;1.00;;
50631;SDS011;49583;45.590;-122.498;2023-03-23T10:23:56;2.40;;;0.90;;
50631;SDS011;49583;45.590;-122.498;2023-03-23T10:26:11;3.60;;;1.50;;
50631;SDS011;49583;45.590;-122.498;2023-03-23T10:28:37;3.40;;;0.70;;
50631;SDS011;49583;45.590;-122.498;2023-03-23T10:30:51;4.50;;;1.50;;
50631;SDS011;49583;45.590;-122.498;2023-03-23T10:33:08;1.50;;;0.80;;
50631;SDS011;49583;45.590;-122.498;2023-03-23T10:35:24;2.10;;;1.10;;
50631;SDS011;49583;45.590;-122.498;2023-03-23T10:37:38;4.60;;;1.40;;
50631;SDS011;49583;45.590;-122.498;2023-03-23T10:39:53;2.30;;;0.90;;
50631;SDS011;49583;45.590;-122.498;2023-03-23T10:42:05;3.90;;;1.40;;
50631;SDS011;49583;45.590;-122.498;2023-03-23T10:44:17;4.00;;;1.30;;
50631;SDS011;49583;45.590;-122.498;2023-03-23T10:46:31;4.80;;;1.20;;
50631;SDS011;49583;45.590;-122.498;2023-03-23T10:48:48;2.30;;;1.00;;
50631;SDS011;49583;45.590;-122.498;2023-03-23T10:51:03;2.70;;;0.90;;
50631;SDS011;49583;45.590;-122.498;2023-03-23T10:53:19;2.40;;;1.20;;
50631;SDS011;49583;45.590;-122.498;2023-03-23T10:55:38;7.40;;;1.20;;
50631;SDS011;49583;45.590;-122.498;2023-03-23T10:58:02;3.20;;;1.40;;
50631;SDS011;49583;45.590;-122.498;2023-03-23T11:00:18;6.30;;;1.00;;
50631;SDS011;49583;45.590;-122.498;2023-03-23T11:02:35;2.30;;;1.10;;
50631;SDS011;49583;45.590;-122.498;2023-03-23T11:04:53;2.10;;;0.80;;
50631;SDS011;49583;45.590;-122.498;2023-03-23T11:07:10;1.90;;;1.10;;
50631;SDS011;49583;45.590;-122.498;2023-03-23T11:09:35;2.80;;;1.20;;
50631;SDS011;49583;45.590;-122.498;2023-03-23T11:11:50;1.50;;;0.90;;
50631;SDS011;49583;45.590;-122.498;2023-03-23T11:14:11;2.70;;;1.10;;
50631;SDS011;49583;45.590;-122.498;2023-03-23T11:16:26;1.30;;;0.90;;
50631;SDS011;49583;45.590;-122.498;2023-03-23T11:18:39;3.80;;;1.20;;
50631;SDS011;49583;45.590;-122.498;2023-03-23T11:20:52;4.60;;;1.30;;
50631;SDS011;49583;45.590;-122.498;2023-03-23T11:23:19;4.30;;;1.30;;
50631;SDS011;49583;45.590;-122.498;2023-03-23T11:25:32;2.80;;;0.90;;
50631;SDS011;49583;45.590;-122.498;2023-03-23T11:27:55;3.70;;;1.40;;
50631;SDS011;49583;45.590;-122.498;2023-03-23T11:30:11;3.40;;;1.10;;
50631;SDS011;49583;45.590;-122.498;2023-03-23T11:32:29;3.30;;;1.60;;
50631;SDS011;49583;45.590;-122.498;2023-03-23T11:34:42;3.30;;;1.30;;
50631;SDS011;49583;45.590;-122.498;2023-03-23T11:36:55;3.60;;;1.20;;
50631;SDS011;49583;45.590;-122.498;2023-03-23T11:39:21;5.00;;;1.70;;
50631;SDS011;49583;45.590;-122.498;2023-03-23T11:41:35;2.40;;;1.20;;
50631;SDS011;49583;45.590;-122.498;2023-03-23T11:43:47;3.00;;;1.30;;
50631;SDS011;49583;45.590;-122.498;2023-03-23T11:46:01;3.90;;;1.60;;
50631;SDS011;49583;45.590;-122.498;2023-03-23T11:48:20;2.40;;;1.10;;
50631;SDS011;49583;45.590;-122.498;2023-03-23T11:50:37;2.40;;;1.40;;
50631;SDS011;49583;45.590;-122.498;2023-03-23T11:52:58;2.30;;;1.30;;
50631;SDS011;49583;45.590;-122.498;2023-03-23T11:55:18;4.10;;;1.30;;
50631;SDS011;49583;45.590;-122.498;2023-03-23T11:57:32;2.40;;;1.00;;
50631;SDS011;49583;45.590;-122.498;2023-03-23T11:59:43;5.40;;;1.30;;
50631;SDS011;49583;45.590;-122.498;2023-03-23T12:01:56;6.10;;;1.30;;
50631;SDS011;49583;45.590;-122.498;2023-03-23T12:04:21;4.70;;;1.30;;
50631;SDS011;49583;45.590;-122.498;2023-03-23T12:06:49;5.80;;;2.70;;
50631;SDS011;49583;45.590;-122.498;2023-03-23T12:09:10;6.50;;;1.70;;
50631;SDS011;49583;45.590;-122.498;2023-03-23T12:11:31;1.80;;;1.10;;
50631;SDS011;49583;45.590;-122.498;2023-03-23T12:13:52;6.50;;;1.50;;
50631;SDS011;49583;45.590;-122.498;2023-03-23T12:16:13;5.00;;;1.50;;
50631;SDS011;49583;45.590;-122.498;2023-03-23T12:18:34;5.30;;;1.70;;
50631;SDS011;49583;45.590;-122.498;2023-03-23T12:20:56;2.30;;;1.00;;
50631;SDS011;49583;45.590;-122.498;2023-03-23T12:23:20;3.40;;;1.20;;
50631;SDS011;49583;45.590;-122.498;2023-03-23T12:25:50;6.30;;;1.60;;
50631;SDS011;49583;45.590;-122.498;2023-03-23T12:28:14;4.70;;;1.30;;
50631;SDS011;49583;45.590;-122.498;2023-03-23T12:30:35;4.30;;;1.30;;
50631;SDS011;49583;45.590;-122.498;2023-03-23T12:32:56;8.60;;;1.70;;
50631;SDS011;49583;45.590;-122.498;2023-03-23T12:35:27;2.40;;;1.20;;
50631;SDS011;49583;45.590;-122.498;2023-03-23T12:37:50;5.90;;;1.40;;
50631;SDS011;49583;45.590;-122.498;2023-03-23T12:40:26;6.60;;;1.40;;
50631;SDS011;49583;45.590;-122.498;2023-03-23T12:42:54;6.70;;;1.60;;
50631;SDS011;49583;45.590;-122.498;2023-03-23T12:45:11;6.10;;;1.50;;
50631;SDS011;49583;45.590;-122.498;2023-03-23T12:47:40;4.40;;;1.30;;
50631;SDS011;49583;45.590;-122.498;2023-03-23T12:49:54;3.30;;;1.70;;
50631;SDS011;49583;45.590;-122.498;2023-03-23T12:52:13;3.90;;;1.40;;
50631;SDS011;49583;45.590;-122.498;2023-03-23T12:54:29;3.90;;;1.30;;
50631;SDS011;49583;45.590;-122.498;2023-03-23T12:56:47;7.00;;;1.50;;
50631;SDS011;49583;45.590;-122.498;2023-03-23T12:59:04;6.00;;;1.20;;
50631;SDS011;49583;45.590;-122.498;2023-03-23T13:01:22;4.10;;;1.50;;
50631;SDS011;49583;45.590;-122.498;2023-03-23T13:03:37;7.10;;;1.80;;
50631;SDS011;49583;45.590;-122.498;2023-03-23T13:05:53;2.10;;;1.50;;
50631;SDS011;49583;45.590;-122.498;2023-03-23T13:08:10;6.90;;;1.50;;
50631;SDS011;49583;45.590;-122.498;2023-03-23T13:10:26;7.00;;;1.90;;
50631;SDS011;49583;45.590;-122.498;2023-03-23T13:12:40;2.50;;;1.30;;
50631;SDS011;49583;45.590;-122.498;2023-03-23T13:14:53;3.70;;;1.50;;
50631;SDS011;49583;45.590;-122.498;2023-03-23T13:17:13;4.50;;;1.50;;
50631;SDS011;49583;45.590;-122.498;2023-03-23T13:19:34;3.00;;;1.20;;
50631;SDS011;49583;45.590;-122.498;2023-03-23T13:21:57;5.10;;;1.30;;
50631;SDS011;49583;45.590;-122.498;2023-03-23T13:24:15;3.50;;;1.00;;
50631;SDS011;49583;45.590;-122.498;2023-03-23T13:26:29;4.80;;;1.40;;
50631;SDS011;49583;45.590;-122.498;2023-03-23T13:28:54;9.70;;;1.30;;
50631;SDS011;49583;45.590;-122.498;2023-03-23T13:31:12;3.30;;;1.40;;
50631;SDS011;49583;45.590;-122.498;2023-03-23T13:33:26;2.80;;;1.30;;
50631;SDS011;49583;45.590;-122.498;2023-03-23T13:35:41;4.50;;;1.40;;
50631;SDS011;49583;45.590;-122.498;2023-03-23T13:37:52;7.70;;;1.70;;